createdAt,value
2023-05-20T00:02:10.402Z,99486.00
2023-05-20T00:04:38.669Z,99497.75
2023-05-20T00:07:09.427Z,99489.13
2023-05-20T00:09:37.800Z,99486.47
2023-05-20T00:12:06.890Z,99485.66
2023-05-20T00:14:35.599Z,99488.69
2023-05-20T00:17:04.121Z,99481.97
2023-05-20T00:19:32.373Z,99475.13
2023-05-20T00:22:00.561Z,99472.44
2023-05-20T00:24:30.338Z,99468.94
2023-05-20T00:26:58.729Z,99480.44
2023-05-20T00:29:28.966Z,99476.31
2023-05-20T00:31:57.361Z,99488.28
2023-05-20T00:34:26.115Z,99488.91
2023-05-20T00:36:55.795Z,99483.06
2023-05-20T00:39:24.263Z,99475.00
2023-05-20T00:41:54.132Z,99478.75
2023-05-20T00:44:25.125Z,99477.13
2023-05-20T00:46:54.705Z,99474.00
2023-05-20T00:49:23.955Z,99472.63
2023-05-20T00:51:52.566Z,99478.25
2023-05-20T00:54:21.216Z,99471.97
2023-05-20T00:56:49.877Z,99464.69
2023-05-20T00:59:20.326Z,99472.81
2023-05-20T01:01:49.575Z,99468.53
2023-05-20T01:04:17.970Z,99465.31
2023-05-20T01:06:48.129Z,99470.59
2023-05-20T01:09:16.704Z,99464.25
2023-05-20T01:11:53.169Z,99459.94
2023-05-20T01:14:25.267Z,99464.44
2023-05-20T01:16:55.542Z,99456.91
2023-05-20T01:19:34.272Z,99455.41
2023-05-20T01:22:07.350Z,99453.78
2023-05-20T01:24:37.902Z,99460.19
2023-05-20T01:27:10.703Z,99463.28
2023-05-20T01:29:39.201Z,99451.25
2023-05-20T01:32:12.829Z,99455.69
2023-05-20T01:34:44.132Z,99460.94
2023-05-20T01:37:14.218Z,99456.88
2023-05-20T01:39:44.726Z,99458.59
2023-05-20T01:42:14.292Z,99460.16
2023-05-20T01:44:42.681Z,99462.44
2023-05-20T01:47:11.066Z,99459.38
2023-05-20T01:49:39.554Z,99456.41
2023-05-20T01:52:07.998Z,99447.56
2023-05-20T01:54:36.586Z,99438.16
2023-05-20T01:57:07.302Z,99441.19
2023-05-20T01:59:36.537Z,99437.31
2023-05-20T02:02:06.614Z,99442.06
2023-05-20T02:04:35.105Z,99435.94
2023-05-20T02:07:03.396Z,99437.03
2023-05-20T02:09:31.942Z,99433.13
2023-05-20T02:12:00.369Z,99440.03
2023-05-20T02:14:30.646Z,99432.47
2023-05-20T02:17:00.350Z,99442.00
2023-05-20T02:19:28.877Z,99434.25
2023-05-20T02:21:57.645Z,99430.16
2023-05-20T02:24:26.306Z,99434.97
2023-05-20T02:26:56.068Z,99424.38
2023-05-20T02:29:24.448Z,99430.44
2023-05-20T02:31:54.373Z,99427.91
2023-05-20T02:34:22.858Z,99422.69
2023-05-20T02:36:52.079Z,99424.94
2023-05-20T02:39:20.466Z,99422.50
2023-05-20T02:41:48.879Z,99422.03
2023-05-20T02:44:17.161Z,99416.50
2023-05-20T02:46:45.589Z,99421.91
2023-05-20T02:49:15.522Z,99413.16
2023-05-20T02:51:43.992Z,99407.50
2023-05-20T02:54:12.421Z,99410.00
2023-05-20T02:56:40.992Z,99413.38
2023-05-20T02:59:11.326Z,99411.44
2023-05-20T03:01:40.781Z,99404.41
2023-05-20T03:04:10.417Z,99417.13
2023-05-20T03:06:44.866Z,99408.84
2023-05-20T03:09:14.357Z,99403.94
2023-05-20T03:11:42.968Z,99413.88
2023-05-20T03:14:11.424Z,99419.59
2023-05-20T03:16:41.969Z,99423.25
2023-05-20T03:19:10.468Z,99415.75
2023-05-20T03:21:40.678Z,99415.72
2023-05-20T03:24:09.106Z,99423.91
2023-05-20T03:26:38.766Z,99425.00
2023-05-20T03:29:07.190Z,99420.56
2023-05-20T03:31:35.790Z,99418.34
2023-05-20T03:34:04.161Z,99420.94
2023-05-20T03:36:35.034Z,99413.13
2023-05-20T03:39:05.231Z,99417.41
2023-05-20T03:41:33.952Z,99414.41
2023-05-20T03:44:02.848Z,99419.72
2023-05-20T03:46:32.887Z,99415.31
2023-05-20T03:49:02.477Z,99413.38
2023-05-20T03:51:30.900Z,99425.19
2023-05-20T03:53:59.381Z,99418.44
2023-05-20T03:56:29.724Z,99417.38
2023-05-20T03:58:58.488Z,99419.69
2023-05-20T04:01:27.442Z,99413.56
2023-05-20T04:03:56.003Z,99418.47
2023-05-20T04:06:24.855Z,99407.75
2023-05-20T04:08:53.693Z,99409.94
2023-05-20T04:11:22.021Z,99415.59
2023-05-20T04:13:51.925Z,99411.66
2023-05-20T04:16:20.390Z,99404.31
2023-05-20T04:18:49.236Z,99405.78
2023-05-20T04:21:19.068Z,99411.50
2023-05-20T04:23:47.614Z,99415.69
2023-05-20T04:26:17.289Z,99419.31
2023-05-20T04:28:48.956Z,99421.53
2023-05-20T04:31:19.205Z,99413.13
2023-05-20T04:33:48.451Z,99416.94
2023-05-20T04:36:17.585Z,99418.59
2023-05-20T04:38:46.276Z,99418.53
2023-05-20T04:41:16.264Z,99424.97
2023-05-20T04:43:46.048Z,99416.84
2023-05-20T04:46:14.578Z,99417.69
2023-05-20T04:48:44.951Z,99414.91
2023-05-20T04:51:15.703Z,99414.34
2023-05-20T04:53:46.278Z,99407.59
2023-05-20T04:56:15.683Z,99409.31
2023-05-20T04:58:44.354Z,99402.66
2023-05-20T05:01:12.970Z,99404.06
2023-05-20T05:03:44.262Z,99403.03
2023-05-20T05:06:14.437Z,99396.38
2023-05-20T05:08:43.124Z,99397.69
2023-05-20T05:11:11.567Z,99388.28
2023-05-20T05:13:40.952Z,99411.22
2023-05-20T05:16:09.768Z,99400.56
2023-05-20T05:18:38.166Z,99394.63
2023-05-20T05:21:07.657Z,99399.78
2023-05-20T05:23:37.126Z,99396.94
2023-05-20T05:26:05.597Z,99399.59
2023-05-20T05:28:33.784Z,99403.41
2023-05-20T05:31:02.408Z,99398.63
2023-05-20T05:33:30.809Z,99397.13
2023-05-20T05:35:59.515Z,99393.78
2023-05-20T05:38:28.898Z,99395.53
2023-05-20T05:40:58.769Z,99388.84
2023-05-20T05:43:26.954Z,99387.22
2023-05-20T05:45:55.492Z,99395.66
2023-05-20T05:48:24.067Z,99397.00
2023-05-20T05:50:52.614Z,99386.88
2023-05-20T05:53:20.820Z,99390.81
2023-05-20T05:55:49.049Z,99391.19
2023-05-20T05:58:19.121Z,99392.44
2023-05-20T06:00:47.252Z,99399.28
2023-05-20T06:03:15.878Z,99390.75
2023-05-20T06:05:47.581Z,99393.50
2023-05-20T06:08:15.939Z,99401.59
2023-05-20T06:10:49.222Z,99397.34
2023-05-20T06:13:19.486Z,99388.56
2023-05-20T06:15:47.513Z,99383.75
2023-05-20T06:18:16.269Z,99390.03
2023-05-20T06:20:44.402Z,99379.28
2023-05-20T06:23:12.958Z,99395.13
2023-05-20T06:25:41.230Z,99387.72
2023-05-20T06:28:09.447Z,99399.63
2023-05-20T06:30:39.067Z,99399.50
2023-05-20T06:33:07.355Z,99400.88
2023-05-20T06:35:36.394Z,99401.22
2023-05-20T06:38:04.933Z,99411.25
2023-05-20T06:40:33.530Z,99406.31
2023-05-20T06:43:01.830Z,99398.59
2023-05-20T06:45:29.969Z,99398.59
2023-05-20T06:48:00.670Z,99397.22
2023-05-20T06:50:29.680Z,99395.28
2023-05-20T06:52:58.276Z,99397.69
2023-05-20T06:55:29.065Z,99386.31
2023-05-20T06:57:57.192Z,99378.78
2023-05-20T07:00:25.545Z,99377.31
2023-05-20T07:02:53.810Z,99387.34
2023-05-20T07:05:24.624Z,99385.53
2023-05-20T07:07:53.051Z,99393.41
2023-05-20T07:10:21.456Z,99384.38
2023-05-20T07:12:50.998Z,99386.91
2023-05-20T07:15:20.334Z,99386.91
2023-05-20T07:17:48.805Z,99379.63
2023-05-20T07:20:17.373Z,99385.94
2023-05-20T07:22:48.919Z,99373.84
2023-05-20T07:25:17.675Z,99376.16
2023-05-20T07:27:46.429Z,99362.91
2023-05-20T07:30:15.278Z,99367.53
2023-05-20T07:32:43.502Z,99367.66
2023-05-20T07:35:11.772Z,99368.63
2023-05-20T07:37:40.243Z,99369.34
2023-05-20T07:40:11.598Z,99365.81
2023-05-20T07:42:39.804Z,99366.63
2023-05-20T07:45:09.425Z,99356.94
2023-05-20T07:47:37.947Z,99368.78
2023-05-20T07:50:07.019Z,99358.75
2023-05-20T07:52:44.186Z,99368.19
2023-05-20T07:55:24.701Z,99369.31
2023-05-20T07:57:53.145Z,99363.00
2023-05-20T08:00:22.146Z,99352.69
2023-05-20T08:02:50.838Z,99357.06
2023-05-20T08:05:19.233Z,99359.81
2023-05-20T08:07:47.713Z,99368.94
2023-05-20T08:10:16.415Z,99375.59
2023-05-20T08:12:46.226Z,99378.78
2023-05-20T08:15:14.751Z,99381.41
2023-05-20T08:17:43.847Z,99376.34
2023-05-20T08:20:14.703Z,99366.25
2023-05-20T08:22:43.241Z,99371.19
2023-05-20T08:25:11.888Z,99366.44
2023-05-20T08:27:40.197Z,99362.50
2023-05-20T08:30:11.971Z,99363.06
2023-05-20T08:32:40.219Z,99349.50
2023-05-20T08:35:09.808Z,99351.47
2023-05-20T08:37:38.133Z,99336.19
2023-05-20T08:40:07.031Z,99338.19
2023-05-20T08:42:36.987Z,99327.88
2023-05-20T08:45:07.173Z,99339.03
2023-05-20T08:47:37.172Z,99336.31
2023-05-20T08:50:05.566Z,99344.69
2023-05-20T08:52:36.959Z,99334.56
2023-05-20T08:55:09.756Z,99342.72
2023-05-20T08:57:39.592Z,99334.09
2023-05-20T09:00:14.445Z,99338.44
2023-05-20T09:02:45.032Z,99327.72
2023-05-20T09:05:13.586Z,99337.88
2023-05-20T09:07:43.807Z,99327.97
2023-05-20T09:10:12.699Z,99328.34
2023-05-20T09:12:41.122Z,99337.53
2023-05-20T09:15:10.577Z,99358.25
2023-05-20T09:17:39.315Z,99340.13
2023-05-20T09:20:12.159Z,99347.16
2023-05-20T09:22:41.275Z,99342.72
2023-05-20T09:25:12.702Z,99344.00
2023-05-20T09:27:41.816Z,99361.97
2023-05-20T09:30:12.927Z,99353.88
2023-05-20T09:32:41.397Z,99345.16
2023-05-20T09:35:15.892Z,99351.84
2023-05-20T09:37:45.608Z,99349.00
2023-05-20T09:40:17.749Z,99351.25
2023-05-20T09:42:52.418Z,99353.19
2023-05-20T09:45:22.385Z,99355.72
2023-05-20T09:47:52.818Z,99351.28
2023-05-20T09:50:23.836Z,99356.91
2023-05-20T09:52:53.652Z,99346.59
2023-05-20T09:55:24.795Z,99347.22
2023-05-20T09:57:54.862Z,99349.09
2023-05-20T10:00:23.294Z,99342.72
2023-05-20T10:02:54.818Z,99341.06
2023-05-20T10:05:30.317Z,99337.31
2023-05-20T10:08:33.058Z,99340.50
2023-05-20T10:11:22.129Z,99339.38
2023-05-20T10:14:08.084Z,99334.97
2023-05-20T10:16:44.550Z,99336.56
2023-05-20T10:19:20.830Z,99335.63
2023-05-20T10:22:00.425Z,99333.09
2023-05-20T10:24:33.626Z,99324.97
2023-05-20T10:27:05.166Z,99329.88
2023-05-20T10:29:45.170Z,99325.75
2023-05-20T10:32:13.805Z,99328.44
2023-05-20T10:34:52.088Z,99325.41
2023-05-20T10:37:29.067Z,99318.56
2023-05-20T10:40:12.929Z,99321.38
2023-05-20T10:42:45.299Z,99325.19
2023-05-20T10:45:13.897Z,99319.13
2023-05-20T10:47:57.432Z,99327.28
2023-05-20T10:50:30.536Z,99335.47
2023-05-20T10:53:10.966Z,99336.84
2023-05-20T10:55:43.015Z,99332.72
2023-05-20T10:58:11.781Z,99336.81
2023-05-20T11:00:41.182Z,99337.78
2023-05-20T11:03:09.550Z,99333.66
2023-05-20T11:05:38.308Z,99332.44
2023-05-20T11:08:24.117Z,99331.16
2023-05-20T11:10:58.170Z,99324.09
2023-05-20T11:13:26.892Z,99338.44
2023-05-20T11:15:56.813Z,99336.81
2023-05-20T11:18:25.295Z,99325.59
2023-05-20T11:20:54.538Z,99310.88
2023-05-20T11:23:24.791Z,99311.28
2023-05-20T11:25:54.188Z,99310.44
2023-05-20T11:28:22.998Z,99316.41
2023-05-20T11:30:53.160Z,99307.81
2023-05-20T11:33:22.134Z,99310.50
2023-05-20T11:35:52.053Z,99308.41
2023-05-20T11:38:21.857Z,99307.81
2023-05-20T11:40:56.000Z,99307.28
2023-05-20T11:43:26.148Z,99291.16
2023-05-20T11:45:56.395Z,99283.47
2023-05-20T11:48:25.310Z,99281.00
2023-05-20T11:50:55.802Z,99274.94
2023-05-20T11:53:25.500Z,99260.81
2023-05-20T11:55:58.533Z,99259.81
2023-05-20T11:58:31.381Z,99257.53
2023-05-20T12:01:13.509Z,99265.34
2023-05-20T12:03:49.192Z,99269.91
2023-05-20T12:06:19.361Z,99263.16
2023-05-20T12:08:51.356Z,99276.13
2023-05-20T12:11:22.048Z,99259.06
2023-05-20T12:13:50.568Z,99262.84
2023-05-20T12:16:18.987Z,99259.06
2023-05-20T12:18:47.207Z,99253.94
2023-05-20T12:21:17.115Z,99253.63
2023-05-20T12:23:45.805Z,99246.16
2023-05-20T12:26:14.589Z,99248.09
2023-05-20T12:28:44.427Z,99255.59
2023-05-20T12:31:13.016Z,99248.97
2023-05-20T12:33:43.658Z,99250.34
2023-05-20T12:36:11.815Z,99236.75
2023-05-20T12:38:40.123Z,99240.91
2023-05-20T12:41:08.967Z,99230.38
2023-05-20T12:43:37.751Z,99231.88
2023-05-20T12:46:07.957Z,99219.63
2023-05-20T12:48:37.167Z,99225.72
2023-05-20T12:51:06.339Z,99239.44
2023-05-20T12:53:34.485Z,99225.97
2023-05-20T12:56:05.256Z,99244.47
2023-05-20T12:58:37.498Z,99246.91
2023-05-20T13:01:06.090Z,99236.94
2023-05-20T13:03:36.130Z,99242.06
2023-05-20T13:06:05.555Z,99242.56
2023-05-20T13:08:33.790Z,99242.88
2023-05-20T13:11:01.951Z,99226.38
2023-05-20T13:13:30.163Z,99239.00
2023-05-20T13:15:59.030Z,99235.63
2023-05-20T13:18:27.500Z,99233.56
2023-05-20T13:20:57.660Z,99233.75
2023-05-20T13:23:25.986Z,99229.22
2023-05-20T13:25:54.485Z,99220.44
2023-05-20T13:28:22.690Z,99227.72
2023-05-20T13:30:52.373Z,99220.44
2023-05-20T13:33:23.334Z,99205.28
2023-05-20T13:35:51.901Z,99193.66
2023-05-20T13:38:21.417Z,99195.53
2023-05-20T13:40:50.093Z,99195.13
2023-05-20T13:43:18.954Z,99185.03
2023-05-20T13:45:47.390Z,99187.09
2023-05-20T13:48:15.971Z,99177.56
2023-05-20T13:50:44.414Z,99172.94
2023-05-20T13:53:14.032Z,99170.63
2023-05-20T13:55:43.789Z,99165.56
2023-05-20T13:58:13.294Z,99180.53
2023-05-20T14:00:41.481Z,99187.50
2023-05-20T14:03:10.814Z,99181.69
2023-05-20T14:05:39.175Z,99183.34
2023-05-20T14:08:07.495Z,99174.25
2023-05-20T14:10:36.608Z,99172.41
2023-05-20T14:13:09.038Z,99168.97
2023-05-20T14:15:37.453Z,99167.97
2023-05-20T14:18:06.027Z,99165.44
2023-05-20T14:20:34.494Z,99169.19
2023-05-20T14:23:03.047Z,99169.38
2023-05-20T14:25:31.549Z,99160.22
2023-05-20T14:28:01.800Z,99166.56
2023-05-20T14:30:31.724Z,99155.69
2023-05-20T14:33:02.532Z,99155.31
2023-05-20T14:35:30.739Z,99150.84
2023-05-20T14:37:58.849Z,99152.19
2023-05-20T14:40:27.830Z,99147.81
2023-05-20T14:42:56.109Z,99150.34
2023-05-20T14:45:24.325Z,99140.13
2023-05-20T14:47:54.280Z,99137.13
2023-05-20T14:50:22.840Z,99133.28
2023-05-20T14:52:51.326Z,99135.88
2023-05-20T14:55:19.482Z,99137.06
2023-05-20T14:57:48.459Z,99127.63
2023-05-20T15:00:17.249Z,99133.13
2023-05-20T15:02:45.381Z,99116.59
2023-05-20T15:05:16.299Z,99126.03
2023-05-20T15:07:47.250Z,99123.19
2023-05-20T15:10:15.400Z,99129.63
2023-05-20T15:12:44.058Z,99127.09
2023-05-20T15:15:13.537Z,99132.25
2023-05-20T15:17:42.065Z,99126.84
2023-05-20T15:20:11.467Z,99128.56
2023-05-20T15:22:41.606Z,99130.97
2023-05-20T15:25:10.352Z,99127.41
2023-05-20T15:27:38.511Z,99126.25
2023-05-20T15:30:08.032Z,99125.78
2023-05-20T15:32:36.184Z,99124.44
2023-05-20T15:35:05.118Z,99120.44
2023-05-20T15:37:33.675Z,99113.94
2023-05-20T15:40:04.696Z,99122.75
2023-05-20T15:42:33.067Z,99124.63
2023-05-20T15:45:01.603Z,99124.63
2023-05-20T15:47:30.023Z,99113.16
2023-05-20T15:49:58.710Z,99099.59
2023-05-20T15:52:27.162Z,99100.34
2023-05-20T15:54:56.522Z,99103.16
2023-05-20T15:57:26.250Z,99098.28
2023-05-20T15:59:54.566Z,99095.59
2023-05-20T16:02:23.664Z,99090.94
2023-05-20T16:04:52.521Z,99087.59
2023-05-20T16:07:21.648Z,99097.56
2023-05-20T16:09:50.019Z,99108.31
2023-05-20T16:12:18.579Z,99095.72
2023-05-20T16:14:48.755Z,99096.56
2023-05-20T16:17:19.317Z,99099.88
2023-05-20T16:19:47.475Z,99096.91
2023-05-20T16:22:16.624Z,99089.69
2023-05-20T16:24:47.875Z,99086.94
2023-05-20T16:27:16.298Z,99094.41
2023-05-20T16:29:44.430Z,99083.19
2023-05-20T16:32:14.724Z,99088.63
2023-05-20T16:34:42.956Z,99092.06
2023-05-20T16:37:11.482Z,99091.69
2023-05-20T16:39:39.869Z,99085.03
2023-05-20T16:42:09.479Z,99088.19
2023-05-20T16:44:39.230Z,99095.78
2023-05-20T16:47:08.257Z,99086.44
2023-05-20T16:49:38.966Z,99097.13
2023-05-20T16:52:08.121Z,99103.00
2023-05-20T16:54:37.281Z,99098.97
2023-05-20T16:57:06.708Z,99103.66
2023-05-20T16:59:36.616Z,99103.47
2023-05-20T17:02:04.939Z,99104.91
2023-05-20T17:04:33.343Z,99100.75
2023-05-20T17:07:03.530Z,99101.22
2023-05-20T17:09:32.103Z,99100.97
2023-05-20T17:12:00.485Z,99097.53
2023-05-20T17:14:28.599Z,99097.03
2023-05-20T17:16:56.791Z,99092.84
2023-05-20T17:19:25.213Z,99096.22
2023-05-20T17:21:53.509Z,99104.47
2023-05-20T17:24:23.330Z,99109.47
2023-05-20T17:26:51.436Z,99110.72
2023-05-20T17:29:19.662Z,99110.84
2023-05-20T17:31:48.390Z,99112.13
2023-05-20T17:34:16.751Z,99110.06
2023-05-20T17:36:45.191Z,99110.53
2023-05-20T17:39:14.037Z,99104.97
2023-05-20T17:41:44.138Z,99102.69
2023-05-20T17:44:13.500Z,99100.13
2023-05-20T17:46:42.006Z,99101.25
2023-05-20T17:49:10.313Z,99108.56
2023-05-20T17:51:42.391Z,99107.88
2023-05-20T17:54:10.794Z,99111.44
2023-05-20T17:56:38.842Z,99114.72
2023-05-20T17:59:08.408Z,99113.09
2023-05-20T18:01:38.021Z,99115.41
2023-05-20T18:04:06.544Z,99124.41
2023-05-20T18:06:35.610Z,99117.63
2023-05-20T18:09:04.780Z,99118.97
2023-05-20T18:11:33.617Z,99126.06
2023-05-20T18:14:02.576Z,99136.38
2023-05-20T18:16:33.895Z,99139.38
2023-05-20T18:19:03.014Z,99135.19
2023-05-20T18:21:31.298Z,99148.78
2023-05-20T18:23:59.926Z,99136.31
2023-05-20T18:26:28.808Z,99144.81
2023-05-20T18:28:58.285Z,99136.97
2023-05-20T18:31:27.246Z,99138.00
2023-05-20T18:33:57.137Z,99138.59
2023-05-20T18:36:27.559Z,99140.56
2023-05-20T18:38:57.100Z,99136.81
2023-05-20T18:41:32.377Z,99135.06
2023-05-20T18:44:05.915Z,99140.78
2023-05-20T18:46:34.614Z,99139.75
2023-05-20T18:49:04.585Z,99145.66
2023-05-20T18:51:33.837Z,99139.75
2023-05-20T18:54:02.109Z,99142.44
2023-05-20T18:56:32.529Z,99136.97
2023-05-20T18:59:00.888Z,99139.13
2023-05-20T19:01:29.773Z,99132.84
2023-05-20T19:03:58.281Z,99131.97
2023-05-20T19:06:28.519Z,99128.81
2023-05-20T19:08:57.061Z,99132.41
2023-05-20T19:11:25.164Z,99126.09
2023-05-20T19:13:53.614Z,99127.75
2023-05-20T19:16:22.423Z,99130.72
2023-05-20T19:18:51.189Z,99128.25
2023-05-20T19:21:19.623Z,99121.78
2023-05-20T19:23:50.162Z,99126.91
2023-05-20T19:26:19.050Z,99129.44
2023-05-20T19:28:47.868Z,99134.13
2023-05-20T19:31:21.283Z,99126.09
2023-05-20T19:33:49.969Z,99130.28
2023-05-20T19:36:18.428Z,99131.91
2023-05-20T19:38:47.047Z,99129.00
2023-05-20T19:41:16.802Z,99133.38
2023-05-20T19:43:44.983Z,99133.06
2023-05-20T19:46:14.535Z,99136.88
2023-05-20T19:48:42.821Z,99136.44
2023-05-20T19:51:11.878Z,99138.75
2023-05-20T19:53:40.223Z,99139.03
2023-05-20T19:56:09.378Z,99138.03
2023-05-20T19:58:39.335Z,99128.06
2023-05-20T20:01:07.910Z,99131.97
2023-05-20T20:03:36.166Z,99132.41
2023-05-20T20:06:04.698Z,99130.00
2023-05-20T20:08:38.035Z,99133.44
2023-05-20T20:11:07.692Z,99134.13
2023-05-20T20:13:36.401Z,99136.09
2023-05-20T20:16:07.753Z,99138.50
2023-05-20T20:18:36.212Z,99136.66
2023-05-20T20:21:06.677Z,99135.81
2023-05-20T20:23:37.066Z,99127.66
2023-05-20T20:26:06.487Z,99135.38
2023-05-20T20:28:35.310Z,99128.78
2023-05-20T20:31:06.319Z,99132.00
2023-05-20T20:33:36.370Z,99117.94
2023-05-20T20:36:04.975Z,99124.13
2023-05-20T20:38:33.855Z,99129.03
2023-05-20T20:41:04.053Z,99135.19
2023-05-20T20:43:34.943Z,99136.19
2023-05-20T20:46:03.752Z,99132.97
2023-05-20T20:48:32.883Z,99124.41
2023-05-20T20:51:05.519Z,99129.88
2023-05-20T20:53:33.693Z,99128.47
2023-05-20T20:56:02.414Z,99124.13
2023-05-20T20:58:30.654Z,99123.13
2023-05-20T21:00:58.790Z,99116.34
2023-05-20T21:03:27.167Z,99117.44
2023-05-20T21:05:55.386Z,99117.88
2023-05-20T21:08:29.788Z,99108.53
2023-05-20T21:10:59.607Z,99109.50
2023-05-20T21:13:28.625Z,99111.59
2023-05-20T21:15:57.141Z,99107.13
2023-05-20T21:18:25.541Z,99102.06
2023-05-20T21:20:56.090Z,99099.19
2023-05-20T21:23:26.150Z,99096.00
2023-05-20T21:25:55.254Z,99096.66
2023-05-20T21:28:23.571Z,99092.41
2023-05-20T21:30:52.296Z,99094.03
2023-05-20T21:33:21.165Z,99087.88
2023-05-20T21:35:49.459Z,99083.22
2023-05-20T21:38:18.455Z,99086.06
2023-05-20T21:40:48.098Z,99082.50
2023-05-20T21:43:16.457Z,99083.75
2023-05-20T21:45:46.007Z,99078.91
2023-05-20T21:48:14.421Z,99079.53
2023-05-20T21:50:42.783Z,99082.31
2023-05-20T21:53:12.140Z,99081.28
2023-05-20T21:55:41.339Z,99079.41
2023-05-20T21:58:13.607Z,99070.41
2023-05-20T22:00:43.069Z,99071.78
2023-05-20T22:03:12.380Z,99065.03
2023-05-20T22:05:41.210Z,99070.31
2023-05-20T22:08:10.259Z,99068.81
2023-05-20T22:10:39.231Z,99060.13
2023-05-20T22:13:11.088Z,99066.84
2023-05-20T22:15:41.214Z,99059.69
2023-05-20T22:18:09.825Z,99059.69
2023-05-20T22:20:38.683Z,99061.56
2023-05-20T22:23:07.334Z,99053.94
2023-05-20T22:25:36.626Z,99049.91
2023-05-20T22:28:05.863Z,99044.50
2023-05-20T22:30:34.391Z,99054.25
2023-05-20T22:33:07.419Z,99044.69
2023-05-20T22:35:36.352Z,99043.91
2023-05-20T22:38:05.156Z,99038.09
2023-05-20T22:40:33.656Z,99038.81
2023-05-20T22:43:01.917Z,99035.88
2023-05-20T22:45:31.696Z,99024.97
2023-05-20T22:48:00.307Z,99026.72
2023-05-20T22:50:30.294Z,99017.97
2023-05-20T22:52:58.391Z,99016.97
2023-05-20T22:55:27.087Z,99015.19
2023-05-20T22:57:55.671Z,99014.72
2023-05-20T23:00:24.141Z,99019.41
2023-05-20T23:02:52.754Z,99018.91
2023-05-20T23:05:21.320Z,99014.53
2023-05-20T23:07:55.198Z,99018.41
2023-05-20T23:10:24.486Z,99002.72
2023-05-20T23:12:53.149Z,99007.94
2023-05-20T23:15:26.749Z,99001.78
2023-05-20T23:17:54.868Z,99008.16
2023-05-20T23:20:23.410Z,99010.88
2023-05-20T23:22:53.739Z,99006.75
2023-05-20T23:25:22.235Z,99007.72
2023-05-20T23:27:51.149Z,98999.72
2023-05-20T23:30:21.162Z,99006.28
2023-05-20T23:32:50.175Z,99009.75
2023-05-20T23:35:18.907Z,99000.56
2023-05-20T23:37:47.540Z,99000.09
2023-05-20T23:40:17.730Z,99001.34
2023-05-20T23:42:46.362Z,99003.53
2023-05-20T23:45:14.741Z,99004.94
2023-05-20T23:47:43.854Z,99003.47
2023-05-20T23:50:13.458Z,99006.56
2023-05-20T23:52:42.151Z,98997.84
2023-05-20T23:55:14.970Z,99000.66
2023-05-20T23:57:48.792Z,98992.03
